createdAt,value
2023-01-11T00:02:43.148Z,3.81
2023-01-11T00:05:46.244Z,3.80
2023-01-11T00:08:48.988Z,3.78
2023-01-11T00:11:52.165Z,3.79
2023-01-11T00:14:54.884Z,3.79
2023-01-11T00:17:58.134Z,3.80
2023-01-11T00:21:05.755Z,3.76
2023-01-11T00:24:08.867Z,3.75
2023-01-11T00:27:11.726Z,3.78
2023-01-11T00:30:16.059Z,3.75
2023-01-11T00:33:18.842Z,3.78
2023-01-11T00:36:22.032Z,3.80
2023-01-11T00:39:24.774Z,3.75
2023-01-11T00:42:46.656Z,3.78
2023-01-11T00:46:07.897Z,3.78
2023-01-11T00:49:11.096Z,3.78
2023-01-11T00:52:13.743Z,3.76
2023-01-11T00:55:16.949Z,3.74
2023-01-11T00:58:19.707Z,3.72
2023-01-11T01:01:23.003Z,3.69
2023-01-11T01:04:26.056Z,3.67
2023-01-11T01:07:29.207Z,3.70
2023-01-11T01:10:31.864Z,3.70
2023-01-11T01:13:53.391Z,3.66
2023-01-11T01:16:59.448Z,3.62
2023-01-11T01:20:02.475Z,3.61
2023-01-11T01:23:05.152Z,3.58
2023-01-11T01:26:08.331Z,3.56
2023-01-11T01:29:11.967Z,3.55
2023-01-11T01:32:15.066Z,3.53
2023-01-11T01:35:17.802Z,3.51
2023-01-11T01:38:20.932Z,3.47
2023-01-11T01:41:23.706Z,3.49
2023-01-11T01:44:48.524Z,3.47
2023-01-11T01:48:00.692Z,3.47
2023-01-11T01:51:07.503Z,3.45
2023-01-11T01:54:15.666Z,3.44
2023-01-11T01:57:22.836Z,3.40
2023-01-11T02:00:25.668Z,3.41
2023-01-11T02:03:29.144Z,3.40
2023-01-11T02:06:32.297Z,3.35
2023-01-11T02:09:51.513Z,3.36
2023-01-11T02:13:05.697Z,3.37
2023-01-11T02:16:08.549Z,3.40
2023-01-11T02:19:38.258Z,3.38
2023-01-11T02:23:02.634Z,3.28
2023-01-11T02:26:33.756Z,3.22
2023-01-11T02:29:56.704Z,3.20
2023-01-11T02:33:09.169Z,3.21
2023-01-11T02:36:17.772Z,3.22
2023-01-11T02:39:22.564Z,3.13
2023-01-11T02:42:57.224Z,3.13
2023-01-11T02:46:09.783Z,3.08
2023-01-11T02:49:37.960Z,3.12
2023-01-11T02:53:04.818Z,3.06
2023-01-11T02:56:15.526Z,3.07
2023-01-11T02:59:22.471Z,2.98
2023-01-11T03:02:25.601Z,3.02
2023-01-11T03:05:28.960Z,3.08
2023-01-11T03:08:44.713Z,2.97
2023-01-11T03:12:26.597Z,2.99
2023-01-11T03:15:57.055Z,2.95
2023-01-11T03:19:25.765Z,2.98
2023-01-11T03:22:40.981Z,2.89
2023-01-11T03:25:59.077Z,2.87
2023-01-11T03:29:28.740Z,2.88
2023-01-11T03:32:48.908Z,2.82
2023-01-11T03:36:12.085Z,2.78
2023-01-11T03:39:35.440Z,2.81
2023-01-11T03:43:03.859Z,2.82
2023-01-11T03:46:18.758Z,2.87
2023-01-11T03:49:28.784Z,2.79
2023-01-11T03:52:38.552Z,2.76
2023-01-11T03:55:44.680Z,2.74
2023-01-11T03:58:47.781Z,2.75
2023-01-11T04:01:53.786Z,2.73
2023-01-11T04:04:56.798Z,2.70
2023-01-11T04:07:59.585Z,2.70
2023-01-11T04:11:05.066Z,2.66
2023-01-11T04:14:07.878Z,2.63
2023-01-11T04:17:11.010Z,2.55
2023-01-11T04:20:14.003Z,2.59
2023-01-11T04:23:17.007Z,2.60
2023-01-11T04:26:19.733Z,2.60
2023-01-11T04:29:22.926Z,2.53
2023-01-11T04:32:25.749Z,2.52
2023-01-11T04:35:28.996Z,2.53
2023-01-11T04:38:31.763Z,2.52
2023-01-11T04:41:53.260Z,2.56
2023-01-11T04:44:56.132Z,2.49
2023-01-11T04:47:59.725Z,2.48
2023-01-11T04:51:02.519Z,2.35
2023-01-11T04:54:06.167Z,2.05
2023-01-11T04:57:12.698Z,2.09
2023-01-11T05:00:16.247Z,1.96
2023-01-11T05:03:18.985Z,1.94
2023-01-11T05:06:24.670Z,1.91
2023-01-11T05:09:27.976Z,1.75
2023-01-11T05:12:31.475Z,1.64
2023-01-11T05:15:35.078Z,1.54
2023-01-11T05:18:42.706Z,1.46
2023-01-11T05:21:45.585Z,1.41
2023-01-11T05:24:48.734Z,0.98
2023-01-11T05:27:51.557Z,0.93
2023-01-11T05:30:54.728Z,1.24
2023-01-11T05:33:58.844Z,0.91
2023-01-11T05:37:01.953Z,0.65
2023-01-11T05:40:07.207Z,0.87
2023-01-11T05:43:10.375Z,0.83
2023-01-11T05:46:13.093Z,0.83
2023-01-11T05:49:16.444Z,0.87
2023-01-11T05:52:19.208Z,0.83
2023-01-11T05:55:22.430Z,0.62
2023-01-11T05:58:27.104Z,0.63
2023-01-11T06:01:30.664Z,0.41
2023-01-11T06:04:33.749Z,0.38
2023-01-11T06:07:36.383Z,0.60
2023-01-11T06:10:39.868Z,0.64
2023-01-11T06:13:43.234Z,0.45
2023-01-11T06:16:46.425Z,0.59
2023-01-11T06:19:49.232Z,0.70
2023-01-11T06:22:52.343Z,0.54
2023-01-11T06:25:55.638Z,0.15
2023-01-11T06:28:58.789Z,0.32
2023-01-11T06:32:01.506Z,0.41
2023-01-11T06:35:05.042Z,0.36
2023-01-11T06:38:11.239Z,0.38
2023-01-11T06:41:14.334Z,-0.01
2023-01-11T06:44:17.201Z,0.09
2023-01-11T06:47:20.525Z,0.19
2023-01-11T06:50:23.858Z,0.19
2023-01-11T06:53:29.233Z,0.26
2023-01-11T06:56:32.237Z,0.11
2023-01-11T06:59:35.485Z,-0.23
2023-01-11T07:02:40.030Z,-0.18
2023-01-11T07:05:44.501Z,-0.14
2023-01-11T07:08:47.367Z,-0.17
2023-01-11T07:11:50.454Z,-0.17
2023-01-11T07:14:53.372Z,-0.04
2023-01-11T07:17:58.886Z,-0.08
2023-01-11T07:21:02.748Z,0.15
2023-01-11T07:24:06.198Z,0.58
2023-01-11T07:27:09.177Z,0.61
2023-01-11T07:30:12.736Z,0.69
2023-01-11T07:33:16.676Z,1.04
2023-01-11T07:36:19.929Z,1.50
2023-01-11T07:39:29.149Z,1.50
2023-01-11T07:42:56.666Z,1.54
2023-01-11T07:45:59.620Z,1.91
2023-01-11T07:49:03.005Z,2.17
2023-01-11T07:52:05.920Z,2.20
2023-01-11T07:55:09.514Z,2.09
2023-01-11T07:58:13.815Z,2.16
2023-01-11T08:01:16.900Z,2.35
2023-01-11T08:04:20.098Z,2.30
2023-01-11T08:07:22.845Z,2.42
2023-01-11T08:10:26.181Z,2.46
2023-01-11T08:13:47.328Z,2.52
2023-01-11T08:16:51.620Z,2.69
2023-01-11T08:19:56.112Z,2.81
2023-01-11T08:23:03.848Z,3.05
2023-01-11T08:26:06.653Z,3.17
2023-01-11T08:29:10.150Z,3.30
2023-01-11T08:32:13.572Z,3.57
2023-01-11T08:35:16.645Z,3.81
2023-01-11T08:38:19.453Z,4.14
2023-01-11T08:41:23.631Z,4.59
2023-01-11T08:44:34.135Z,5.03
2023-01-11T08:47:37.673Z,5.70
2023-01-11T08:50:40.539Z,6.58
2023-01-11T08:53:43.876Z,7.08
2023-01-11T08:56:46.667Z,8.07
2023-01-11T08:59:49.923Z,8.76
2023-01-11T09:02:52.643Z,9.51
2023-01-11T09:05:57.179Z,10.46
2023-01-11T09:08:59.965Z,10.24
2023-01-11T09:12:05.864Z,10.66
2023-01-11T09:15:09.935Z,11.72
2023-01-11T09:18:14.207Z,11.72
2023-01-11T09:21:16.970Z,11.92
2023-01-11T09:24:20.112Z,11.98
2023-01-11T09:27:22.868Z,12.19
2023-01-11T09:30:26.294Z,11.89
2023-01-11T09:33:29.334Z,12.08
2023-01-11T09:36:33.608Z,12.44
2023-01-11T09:39:37.348Z,13.27
2023-01-11T09:42:43.275Z,12.48
2023-01-11T09:45:47.172Z,12.84
2023-01-11T09:49:03.599Z,13.12
2023-01-11T09:52:21.274Z,13.49
2023-01-11T09:55:49.863Z,13.38
2023-01-11T09:59:21.105Z,14.13
2023-01-11T10:02:57.857Z,13.67
2023-01-11T10:06:09.366Z,14.13
2023-01-11T10:18:37.309Z,12.59
2023-01-11T10:20:53.512Z,13.37
2023-01-11T10:24:07.066Z,14.07
2023-01-11T10:27:28.108Z,14.46
2023-01-11T10:30:59.996Z,13.29
2023-01-11T10:34:25.043Z,14.06
2023-01-11T10:37:56.739Z,14.53
2023-01-11T10:41:15.958Z,13.59
2023-01-11T10:44:32.897Z,14.33
2023-01-11T10:48:12.835Z,13.76
2023-01-11T10:51:46.594Z,14.45
2023-01-11T10:54:54.981Z,15.17
2023-01-11T10:58:04.207Z,14.92
2023-01-11T11:01:24.705Z,15.75
2023-01-11T11:04:27.373Z,16.12
2023-01-11T11:07:55.773Z,15.45
2023-01-11T11:11:17.611Z,14.76
2023-01-11T11:15:03.393Z,14.76
2023-01-11T11:18:06.235Z,15.62
2023-01-11T11:21:22.753Z,16.12
2023-01-11T11:24:33.358Z,15.74
2023-01-11T11:27:50.955Z,15.59
2023-01-11T11:30:57.079Z,15.41
2023-01-11T11:34:07.368Z,15.51
2023-01-11T11:37:27.800Z,14.62
2023-01-11T11:40:37.051Z,14.88
2023-01-11T11:43:42.544Z,15.20
2023-01-11T11:47:03.998Z,14.82
2023-01-11T11:50:43.677Z,14.28
2023-01-11T11:53:55.945Z,14.87
2023-01-11T11:57:12.610Z,15.15
2023-01-11T12:00:27.161Z,14.78
2023-01-11T12:03:32.547Z,15.92
2023-01-11T12:06:35.424Z,16.04
2023-01-11T12:09:42.854Z,15.70
2023-01-11T12:12:57.171Z,15.96
2023-01-11T12:16:06.743Z,15.14
2023-01-11T12:19:30.520Z,15.81
2023-01-11T12:22:33.706Z,15.48
2023-01-11T12:26:03.336Z,16.04
2023-01-11T12:29:35.431Z,15.40
2023-01-11T12:33:07.562Z,15.15
2023-01-11T12:36:23.046Z,15.43
2023-01-11T12:39:50.516Z,15.79
2023-01-11T12:43:08.689Z,15.81
2023-01-11T12:46:22.271Z,16.02
2023-01-11T12:49:46.543Z,16.60
2023-01-11T12:53:27.340Z,15.61
2023-01-11T12:57:13.704Z,15.40
2023-01-11T13:00:27.126Z,14.65
2023-01-11T13:04:15.099Z,14.89
2023-01-11T13:07:56.407Z,15.77
2023-01-11T13:11:09.492Z,15.49
2023-01-11T13:14:24.899Z,15.70
2023-01-11T13:17:34.825Z,15.60
2023-01-11T13:21:06.918Z,15.11
2023-01-11T13:24:26.510Z,15.29
2023-01-11T13:27:32.153Z,15.20
2023-01-11T13:30:38.704Z,15.50
2023-01-11T13:33:48.138Z,14.98
2023-01-11T13:37:00.782Z,15.19
2023-01-11T13:40:27.459Z,14.99
2023-01-11T13:43:42.500Z,14.17
2023-01-11T13:47:06.710Z,14.11
2023-01-11T13:50:44.716Z,13.22
2023-01-11T13:53:56.483Z,12.62
2023-01-11T13:57:05.296Z,11.58
2023-01-11T14:00:21.597Z,11.14
2023-01-11T14:03:56.284Z,10.34
2023-01-11T14:07:14.177Z,9.94
2023-01-11T14:10:40.620Z,9.51
2023-01-11T14:14:14.005Z,9.41
2023-01-11T14:17:53.074Z,9.18
2023-01-11T14:20:55.840Z,8.81
2023-01-11T14:23:59.851Z,8.56
2023-01-11T14:27:45.479Z,8.31
2023-01-11T14:31:03.766Z,8.11
2023-01-11T14:34:25.536Z,7.95
2023-01-11T14:37:48.111Z,7.66
2023-01-11T14:41:23.195Z,7.52
2023-01-11T14:44:47.951Z,7.27
2023-01-11T14:48:02.856Z,7.05
2023-01-11T14:51:32.573Z,6.89
2023-01-11T14:54:42.642Z,6.75
2023-01-11T14:57:56.427Z,6.58
2023-01-11T15:01:00.131Z,6.40
2023-01-11T15:04:03.262Z,6.26
2023-01-11T15:07:26.040Z,6.14
2023-01-11T15:10:29.035Z,6.07
2023-01-11T15:13:50.061Z,5.95
2023-01-11T15:17:16.790Z,5.76
2023-01-11T15:20:24.983Z,5.60
2023-01-11T15:23:35.651Z,5.45
2023-01-11T15:26:48.263Z,5.34
2023-01-11T15:29:57.847Z,5.13
2023-01-11T15:33:19.251Z,4.94
2023-01-11T15:36:25.822Z,4.68
2023-01-11T15:39:45.716Z,4.57
2023-01-11T15:43:23.220Z,4.55
2023-01-11T15:47:07.962Z,4.48
2023-01-11T15:50:29.931Z,4.34
2023-01-11T15:53:45.159Z,4.32
2023-01-11T15:57:00.219Z,4.27
2023-01-11T16:00:47.104Z,4.11
2023-01-11T16:04:27.656Z,4.02
2023-01-11T16:08:00.253Z,3.88
2023-01-11T16:11:09.458Z,3.62
2023-01-11T16:14:31.272Z,3.51
2023-01-11T16:17:34.511Z,3.59
2023-01-11T16:20:38.515Z,3.50
2023-01-11T16:23:41.993Z,3.19
2023-01-11T16:26:49.769Z,2.91
2023-01-11T16:29:53.875Z,2.79
2023-01-11T16:33:23.083Z,2.99
2023-01-11T16:36:26.608Z,3.12
2023-01-11T16:39:33.411Z,3.02
2023-01-11T16:42:45.106Z,2.96
2023-01-11T16:45:56.643Z,3.10
2023-01-11T16:49:10.155Z,3.15
2023-01-11T16:52:28.492Z,3.01
2023-01-11T16:55:37.106Z,2.96
2023-01-11T16:58:40.850Z,2.70
2023-01-11T17:02:01.192Z,2.83
2023-01-11T17:05:19.255Z,2.83
2023-01-11T17:08:31.447Z,2.43
2023-01-11T17:11:45.599Z,2.04
2023-01-11T17:15:19.582Z,2.10
2023-01-11T17:18:22.890Z,2.20
2023-01-11T17:21:29.057Z,1.91
2023-01-11T17:24:39.864Z,1.63
2023-01-11T17:27:51.082Z,1.71
2023-01-11T17:30:54.574Z,1.65
2023-01-11T17:34:16.483Z,1.48
2023-01-11T17:37:20.171Z,1.66
2023-01-11T17:40:36.837Z,1.71
2023-01-11T17:43:58.613Z,1.74
2023-01-11T17:47:05.459Z,1.37
2023-01-11T17:50:24.614Z,1.15
2023-01-11T17:53:36.796Z,1.08
2023-01-11T17:56:45.457Z,1.20
2023-01-11T17:59:48.711Z,1.05
2023-01-11T18:02:52.631Z,0.97
2023-01-11T18:05:56.265Z,0.87
2023-01-11T18:09:01.171Z,0.78
2023-01-11T18:12:18.625Z,0.83
2023-01-11T18:15:29.350Z,0.83
2023-01-11T18:18:44.897Z,0.93
2023-01-11T18:21:53.594Z,1.01
2023-01-11T18:24:59.825Z,0.92
2023-01-11T18:28:15.014Z,1.05
2023-01-11T18:31:18.368Z,1.07
2023-01-11T18:34:21.463Z,1.06
2023-01-11T18:37:24.752Z,0.99
2023-01-11T18:40:28.231Z,1.06
2023-01-11T18:43:32.359Z,1.13
2023-01-11T18:46:35.222Z,1.11
2023-01-11T18:49:38.565Z,1.14
2023-01-11T18:52:41.810Z,1.25
2023-01-11T18:55:46.566Z,1.05
2023-01-11T18:58:50.310Z,1.03
2023-01-11T19:02:11.989Z,0.94
2023-01-11T19:05:20.660Z,1.04
2023-01-11T19:08:24.316Z,0.83
2023-01-11T19:11:29.126Z,0.72
2023-01-11T19:14:32.635Z,0.78
2023-01-11T19:17:36.638Z,0.87
2023-01-11T19:20:41.352Z,0.89
2023-01-11T19:23:44.664Z,0.87
2023-01-11T19:26:51.033Z,0.92
2023-01-11T19:29:54.291Z,0.91
2023-01-11T19:32:57.988Z,0.90
2023-01-11T19:36:06.796Z,1.02
2023-01-11T19:39:10.365Z,1.07
2023-01-11T19:42:13.895Z,1.05
2023-01-11T19:45:17.798Z,1.12
2023-01-11T19:48:20.962Z,1.20
2023-01-11T19:51:25.055Z,1.40
2023-01-11T19:54:29.502Z,1.61
2023-01-11T19:57:32.865Z,1.74
2023-01-11T20:00:36.541Z,1.76
2023-01-11T20:03:44.582Z,1.54
2023-01-11T20:06:52.206Z,1.57
2023-01-11T20:09:55.650Z,1.60
2023-01-11T20:12:59.111Z,1.72
2023-01-11T20:16:11.853Z,1.93
2023-01-11T20:19:16.112Z,1.97
2023-01-11T20:22:21.711Z,2.10
2023-01-11T20:25:26.732Z,2.02
2023-01-11T20:28:30.184Z,1.81
2023-01-11T20:31:35.810Z,2.12
2023-01-11T20:34:40.970Z,2.26
2023-01-11T20:37:48.003Z,2.40
2023-01-11T20:40:52.036Z,2.04
2023-01-11T20:43:55.063Z,2.23
2023-01-11T20:46:59.244Z,2.32
2023-01-11T20:50:02.834Z,2.40
2023-01-11T20:53:06.008Z,2.56
2023-01-11T20:56:09.384Z,2.59
2023-01-11T20:59:14.623Z,2.55
2023-01-11T21:02:17.507Z,2.46
2023-01-11T21:05:20.791Z,2.31
2023-01-11T21:08:23.704Z,2.33
2023-01-11T21:11:28.784Z,2.65
2023-01-11T21:14:31.519Z,2.67
2023-01-11T21:17:35.837Z,2.79
2023-01-11T21:20:38.638Z,3.01
2023-01-11T21:23:42.534Z,2.99
2023-01-11T21:26:46.088Z,3.13
2023-01-11T21:29:49.458Z,3.08
2023-01-11T21:32:52.729Z,3.04
2023-01-11T21:35:57.704Z,2.94
2023-01-11T21:39:01.151Z,2.97
2023-01-11T21:42:04.472Z,3.09
2023-01-11T21:45:10.125Z,3.11
2023-01-11T21:48:13.247Z,2.86
2023-01-11T21:51:17.008Z,2.70
2023-01-11T21:54:20.346Z,2.88
2023-01-11T21:57:23.155Z,3.03
2023-01-11T22:00:28.914Z,3.22
2023-01-11T22:03:32.945Z,3.27
2023-01-11T22:06:40.528Z,3.24
2023-01-11T22:10:03.295Z,3.24
2023-01-11T22:13:07.236Z,3.27
2023-01-11T22:16:17.975Z,3.22
2023-01-11T22:19:21.234Z,3.02
2023-01-11T22:22:24.554Z,3.26
2023-01-11T22:25:27.491Z,3.34
2023-01-11T22:28:30.587Z,3.42
2023-01-11T22:31:34.319Z,2.90
2023-01-11T22:34:39.510Z,3.10
2023-01-11T22:37:42.491Z,3.10
2023-01-11T22:40:45.598Z,3.19
2023-01-11T22:43:49.887Z,3.30
2023-01-11T22:46:53.089Z,3.35
2023-01-11T22:49:57.050Z,3.47
2023-01-11T22:53:00.797Z,3.47
2023-01-11T22:56:04.016Z,3.34
2023-01-11T22:59:07.247Z,3.39
2023-01-11T23:02:10.112Z,3.34
2023-01-11T23:05:13.421Z,3.36
2023-01-11T23:08:16.472Z,3.53
2023-01-11T23:11:41.206Z,3.39
2023-01-11T23:14:44.600Z,3.48
2023-01-11T23:17:47.992Z,3.37
2023-01-11T23:20:50.907Z,3.50
2023-01-11T23:23:54.420Z,3.55
2023-01-11T23:26:58.061Z,3.62
2023-01-11T23:30:01.246Z,3.76
2023-01-11T23:33:04.145Z,3.80
2023-01-11T23:36:07.836Z,3.95
2023-01-11T23:39:16.007Z,3.96
2023-01-11T23:42:28.457Z,3.98
2023-01-11T23:45:31.358Z,4.04
2023-01-11T23:48:35.033Z,3.88
2023-01-11T23:51:38.619Z,3.81
2023-01-11T23:54:41.852Z,3.94
2023-01-11T23:58:04.729Z,4.05
